PARDEE (PAR)

Elevation: 568' · MOKELUMNE R basin · Operator: East Bay Municipal Utility District


Station comments:

09/16/2016On October 1, 2016, the East Bay Municipal Utility District began using a revised elevation-capacity table. The revised capacity is 203,795 acre-feet at the spillway crest.


Provisional data, subject to change.
Query executed Tuesday at 22:08:31   clock

Select a sensor type for a plot of data.
Note: Reservoir Flows are daily averages.

Earlier

Date RES ELE    STORAGE    RES CHG    OUTFLOW    INFLOW    PPT INC   
 FEET   AF   AF   CFS   CFS   INCHES  
08/28/2016 563.03 187849 -229 613 574 0.00
08/29/2016 562.95 187669 -180 718 399 0.00
08/30/2016 562.63 186988 -681 824 490 0.00
08/31/2016 562.51 186727 -261 613 216 0.00
09/01/2016 562.36 186415 -312 664 354 0.00
09/02/2016 562.18 186029 -386 701 373 0.00
09/03/2016 562.30 186291 262 373 300 0.00
09/04/2016 562.33 186372 81 373 467 0.00
09/05/2016 562.17 185995 -377 651 505 0.00
09/06/2016 562.00 185636 -359 658 314 0.00
09/07/2016 561.87 185359 -277 651 353 0.00
09/08/2016 561.66 184924 -435 662 378 0.00
09/09/2016 561.44 184451 -473 662 345 0.00
09/10/2016 561.46 184490 39 374 228 0.00
09/11/2016 561.47 184520 30 374 381 0.00
09/12/2016 561.56 184703 183 372 454 0.00
09/13/2016 561.36 184281 -422 659 502 0.00
09/14/2016 561.13 183783 -498 659 347 0.00
09/15/2016 560.99 183489 -294 654 335 0.00
09/16/2016 561.08 183685 196 369 301 0.00
09/17/2016 561.10 183714 29 368 430 0.00
09/18/2016 561.13 183791 77 364 358 0.00
09/19/2016 561.28 184098 307 364 439 0.00
09/20/2016 561.36 184277 179 364 491 0.00
09/21/2016 561.13 183783 -494 724 504 0.00
09/22/2016 561.19 183910 127 366 212 0.00
09/23/2016 561.36 184268 358 364 434 0.00
09/24/2016 561.42 184396 128 364 544 0.00
09/25/2016 561.33 184217 -179 366 384 0.00
09/26/2016 561.17 183876 -341 366 310 0.00
09/27/2016 -- -- -- -- -- --

Later | Latest

Warning! This data is preliminary and subject to revision.

Show PAR Map | Plot PAR Data | 1 Month PAR Data | Real-Time PAR Data | PAR Info